Pagrindinis puslapis
METAR-TAF:

METAR-TAF

Oro uostai :

Kiana, Aliaska, Jungtinės Amerikos Valstijos

platuma: 66-59N, ilguma: 160-26W, Aukštis: 46 m

Dabartinis oras

Ataskaita buvo paskelbta 20 minutes, ne 20:56 UTC
Vėjas 4 kt iš Pietryčių
Temperatūra 4°C
Drėgmė 75%
Slėgis 1001 hPa
Matomumas: 16.1 km
Giedras dangus

METAR: PAIK 212056Z AUTO 13004KT 10SM CLR 04/00 A2956 RMK AO2 SLP012 60000 T00390000 51008

Laikas: 13:16 (21:16 UTC)


TAF: trūkstamas

Orai ataskaitas ir orų prognozės (METAR, TAF).

turimą stotys yra geltonos ir raudonos taškus žemėlapyje.

Perkelti pele per norėdami pamatyti stoties vardą.

Tada spustelėkite, norėdami matyti oro stebėjimo ir prognozės.

Norėdami pakeisti žemėlapį: spustelėkite ant žalios mygtukų su juodo kryžiaus žemyn,; žalią mygtuką su brūkšneliu, jei norite nutolinti; arba žalių rodyklių gretimoms žemėlapius.


METAR-TAF: